createdAt,value
2022-09-10T00:01:32.736Z,99638.84
2022-09-10T00:04:04.774Z,99645.03
2022-09-10T00:06:35.439Z,99642.38
2022-09-10T00:09:03.708Z,99643.25
2022-09-10T00:11:32.450Z,99644.16
2022-09-10T00:14:01.894Z,99638.00
2022-09-10T00:16:32.359Z,99638.84
2022-09-10T00:19:02.690Z,99639.75
2022-09-10T00:21:32.027Z,99643.28
2022-09-10T00:24:03.069Z,99645.91
2022-09-10T00:26:35.304Z,99644.16
2022-09-10T00:29:03.616Z,99656.47
2022-09-10T00:31:33.945Z,99651.19
2022-09-10T00:34:05.789Z,99651.22
2022-09-10T00:36:36.665Z,99653.84
2022-09-10T00:39:07.146Z,99647.72
2022-09-10T00:41:36.752Z,99647.69
2022-09-10T00:44:07.515Z,99645.06
2022-09-10T00:46:42.660Z,99638.03
2022-09-10T00:49:15.675Z,99640.66
2022-09-10T00:51:45.134Z,99642.41
2022-09-10T00:54:15.150Z,99634.50
2022-09-10T00:56:43.615Z,99637.16
2022-09-10T00:59:16.752Z,99631.00
2022-09-10T01:01:45.890Z,99638.03
2022-09-10T01:04:17.173Z,99633.63
2022-09-10T01:06:47.358Z,99634.50
2022-09-10T01:09:16.071Z,99630.13
2022-09-10T01:12:04.570Z,99632.72
2022-09-10T01:14:52.127Z,99627.44
2022-09-10T01:17:30.158Z,99636.25
2022-09-10T01:20:38.217Z,99625.69
2022-09-10T01:23:37.680Z,99631.84
2022-09-10T01:26:19.225Z,99627.44
2022-09-10T01:29:01.129Z,99620.41
2022-09-10T01:31:38.817Z,99624.81
2022-09-10T01:34:24.994Z,99630.09
2022-09-10T01:36:59.082Z,99617.75
2022-09-10T01:39:28.857Z,99618.66
2022-09-10T01:41:58.817Z,99623.94
2022-09-10T01:44:44.362Z,99616.03
2022-09-10T01:47:26.171Z,99611.59
2022-09-10T01:50:14.889Z,99609.88
2022-09-10T01:52:54.561Z,99614.28
2022-09-10T01:55:35.118Z,99618.66
2022-09-10T01:58:14.099Z,99617.81
2022-09-10T02:00:56.802Z,99613.38
2022-09-10T02:03:27.236Z,99611.66
2022-09-10T02:05:57.331Z,99612.50
2022-09-10T02:08:31.009Z,99613.41
2022-09-10T02:11:00.798Z,99610.78
2022-09-10T02:13:34.613Z,99615.16
2022-09-10T02:16:23.163Z,99619.56
2022-09-10T02:18:52.054Z,99618.69
2022-09-10T02:21:20.886Z,99618.69
2022-09-10T02:23:54.594Z,99622.19
2022-09-10T02:26:23.266Z,99615.16
2022-09-10T02:28:51.778Z,99617.78
2022-09-10T02:31:21.555Z,99619.56
2022-09-10T02:33:51.193Z,99625.72
2022-09-10T02:36:19.799Z,99620.44
2022-09-10T02:38:49.598Z,99623.06
2022-09-10T02:41:17.889Z,99620.44
2022-09-10T02:43:46.213Z,99617.81
2022-09-10T02:46:15.070Z,99618.69
2022-09-10T02:48:45.574Z,99619.56
2022-09-10T02:51:14.781Z,99616.03
2022-09-10T02:53:43.274Z,99618.69
2022-09-10T02:56:12.363Z,99616.94
2022-09-10T02:58:40.689Z,99622.22
2022-09-10T03:01:10.697Z,99624.84
2022-09-10T03:03:40.117Z,99621.31
2022-09-10T03:06:10.527Z,99623.09
2022-09-10T03:08:38.961Z,99618.69
2022-09-10T03:11:08.172Z,99613.41
2022-09-10T03:13:36.456Z,99619.56
2022-09-10T03:16:04.963Z,99624.88
2022-09-10T03:18:35.253Z,99610.75
2022-09-10T03:21:14.815Z,99608.13
2022-09-10T03:23:44.814Z,99613.41
2022-09-10T03:26:15.024Z,99612.53
2022-09-10T03:28:44.883Z,99620.47
2022-09-10T03:31:15.914Z,99622.22
2022-09-10T03:33:48.209Z,99615.19
2022-09-10T03:36:18.941Z,99620.47
2022-09-10T03:38:49.577Z,99622.22
2022-09-10T03:41:17.841Z,99618.69
2022-09-10T03:43:47.062Z,99622.22
2022-09-10T03:46:16.382Z,99620.47
2022-09-10T03:48:48.545Z,99615.19
2022-09-10T03:51:23.146Z,99615.19
2022-09-10T03:53:51.385Z,99616.06
2022-09-10T03:56:22.397Z,99615.19
2022-09-10T03:58:51.118Z,99617.84
2022-09-10T04:01:20.816Z,99626.63
2022-09-10T04:03:50.387Z,99624.84
2022-09-10T04:06:18.803Z,99623.97
2022-09-10T04:08:52.691Z,99623.97
2022-09-10T04:11:23.919Z,99622.22
2022-09-10T04:13:52.828Z,99623.09
2022-09-10T04:16:23.197Z,99623.97
2022-09-10T04:18:51.679Z,99610.78
2022-09-10T04:21:20.971Z,99618.72
2022-09-10T04:23:56.275Z,99615.19
2022-09-10T04:26:24.716Z,99611.66
2022-09-10T04:28:53.461Z,99616.06
2022-09-10T04:31:23.460Z,99614.28
2022-09-10T04:33:55.873Z,99619.56
2022-09-10T04:36:27.000Z,99619.56
2022-09-10T04:38:56.808Z,99623.13
2022-09-10T04:41:25.127Z,99610.78
2022-09-10T04:43:55.102Z,99625.75
2022-09-10T04:46:24.670Z,99623.13
2022-09-10T04:48:55.203Z,99631.03
2022-09-10T04:51:25.854Z,99630.13
2022-09-10T04:53:57.962Z,99620.47
2022-09-10T04:56:30.859Z,99624.88
2022-09-10T04:59:00.864Z,99629.25
2022-09-10T05:01:31.954Z,99634.56
2022-09-10T05:04:00.283Z,99629.28
2022-09-10T05:06:28.590Z,99631.00
2022-09-10T05:08:58.942Z,99634.56
2022-09-10T05:11:27.839Z,99636.28
2022-09-10T05:13:56.139Z,99641.56
2022-09-10T05:16:28.504Z,99637.19
2022-09-10T05:18:57.102Z,99635.41
2022-09-10T05:21:27.140Z,99643.34
2022-09-10T05:23:57.068Z,99643.34
2022-09-10T05:26:28.626Z,99647.75
2022-09-10T05:28:59.707Z,99641.56
2022-09-10T05:31:28.799Z,99646.84
2022-09-10T05:33:59.283Z,99649.50
2022-09-10T05:36:27.806Z,99646.84
2022-09-10T05:38:56.135Z,99650.38
2022-09-10T05:41:25.190Z,99657.44
2022-09-10T05:43:56.633Z,99650.38
2022-09-10T05:46:25.376Z,99657.41
2022-09-10T05:48:56.554Z,99656.53
2022-09-10T05:51:27.794Z,99658.31
2022-09-10T05:53:57.479Z,99656.53
2022-09-10T05:56:27.057Z,99667.09
2022-09-10T05:58:56.735Z,99656.53
2022-09-10T06:01:25.013Z,99656.53
2022-09-10T06:03:53.731Z,99659.19
2022-09-10T06:06:22.013Z,99664.47
2022-09-10T06:08:57.585Z,99668.88
2022-09-10T06:11:41.826Z,99657.41
2022-09-10T06:14:14.836Z,99657.41
2022-09-10T06:16:43.264Z,99668.88
2022-09-10T06:19:12.574Z,99670.59
2022-09-10T06:21:41.210Z,99673.25
2022-09-10T06:24:10.617Z,99668.84
2022-09-10T06:26:42.646Z,99677.66
2022-09-10T06:29:15.595Z,99681.16
2022-09-10T06:31:44.506Z,99683.81
2022-09-10T06:34:14.054Z,99684.72
2022-09-10T06:36:43.583Z,99688.22
2022-09-10T06:39:13.065Z,99684.69
2022-09-10T06:41:49.911Z,99693.47
2022-09-10T06:44:52.023Z,99688.19
2022-09-10T06:50:17.380Z,99689.94
2022-09-10T06:52:48.785Z,99689.09
2022-09-10T06:55:19.459Z,99690.84
2022-09-10T06:57:48.442Z,99697.88
2022-09-10T07:00:20.173Z,99695.25
2022-09-10T07:02:53.463Z,99702.28
2022-09-10T07:05:23.152Z,99696.97
2022-09-10T07:07:52.383Z,99704.03
2022-09-10T07:10:21.515Z,99697.88
2022-09-10T07:12:50.126Z,99702.28
2022-09-10T07:15:20.671Z,99701.41
2022-09-10T07:17:49.020Z,99708.44
2022-09-10T07:20:18.113Z,99711.97
2022-09-10T07:22:48.227Z,99711.97
2022-09-10T07:25:19.867Z,99708.44
2022-09-10T07:27:56.059Z,99716.34
2022-09-10T07:30:27.263Z,99711.06
2022-09-10T07:32:56.688Z,99715.47
2022-09-10T07:35:28.490Z,99711.06
2022-09-10T07:37:57.128Z,99717.22
2022-09-10T07:40:28.201Z,99716.34
2022-09-10T07:42:59.082Z,99717.19
2022-09-10T07:45:30.238Z,99720.75
2022-09-10T07:48:00.039Z,99718.09
2022-09-10T07:50:28.778Z,99718.97
2022-09-10T07:52:58.066Z,99717.19
2022-09-10T07:55:27.259Z,99721.63
2022-09-10T07:57:59.886Z,99727.78
2022-09-10T08:00:31.522Z,99721.59
2022-09-10T08:03:04.549Z,99722.50
2022-09-10T08:05:32.843Z,99726.00
2022-09-10T08:08:03.394Z,99725.13
2022-09-10T08:10:31.715Z,99720.72
2022-09-10T08:13:00.509Z,99720.69
2022-09-10T08:15:28.831Z,99725.09
2022-09-10T08:18:01.646Z,99725.09
2022-09-10T08:20:31.070Z,99732.13
2022-09-10T08:23:00.653Z,99734.78
2022-09-10T08:25:28.920Z,99736.53
2022-09-10T08:27:58.357Z,99725.94
2022-09-10T08:30:27.213Z,99730.34
2022-09-10T08:32:56.459Z,99738.25
2022-09-10T08:35:27.439Z,99729.44
2022-09-10T08:37:55.814Z,99731.16
2022-09-10T08:40:24.086Z,99729.44
2022-09-10T08:42:53.591Z,99729.41
2022-09-10T08:45:29.059Z,99729.38
2022-09-10T08:48:04.282Z,99732.00
2022-09-10T08:50:42.545Z,99733.75
2022-09-10T08:53:25.769Z,99727.59
2022-09-10T08:55:57.678Z,99716.13
2022-09-10T08:58:31.754Z,99725.81
2022-09-10T09:01:05.850Z,99718.75
2022-09-10T09:03:39.299Z,99722.25
2022-09-10T09:06:18.737Z,99726.66
2022-09-10T09:08:49.985Z,99729.28
2022-09-10T09:11:34.613Z,99719.56
2022-09-10T09:14:33.460Z,99723.97
2022-09-10T09:17:24.849Z,99718.66
2022-09-10T09:20:02.953Z,99720.41
2022-09-10T09:22:46.906Z,99727.47
2022-09-10T09:25:23.584Z,99715.19
2022-09-10T09:27:56.230Z,99721.38
2022-09-10T09:30:32.181Z,99722.25
2022-09-10T09:33:13.269Z,99717.88
2022-09-10T09:35:48.529Z,99714.34
2022-09-10T09:38:24.614Z,99711.75
2022-09-10T09:40:57.677Z,99716.16
2022-09-10T09:43:38.470Z,99713.56
2022-09-10T09:46:16.006Z,99716.22
2022-09-10T09:48:48.001Z,99710.94
2022-09-10T09:51:20.924Z,99717.97
2022-09-10T09:54:01.146Z,99731.19
2022-09-10T09:56:45.548Z,99713.56
2022-09-10T09:59:27.522Z,99707.41
2022-09-10T10:02:00.151Z,99711.84
2022-09-10T10:04:31.209Z,99705.66
2022-09-10T10:07:01.907Z,99701.25
2022-09-10T10:09:33.627Z,99695.97
2022-09-10T10:12:04.439Z,99691.56
2022-09-10T10:14:39.297Z,99693.34
2022-09-10T10:17:30.666Z,99693.34
2022-09-10T10:20:13.574Z,99690.69
2022-09-10T10:22:43.183Z,99685.41
2022-09-10T10:25:49.456Z,99690.69
2022-09-10T10:28:23.919Z,99705.69
2022-09-10T10:30:53.318Z,99703.03
2022-09-10T10:33:28.607Z,99704.81
2022-09-10T10:36:06.645Z,99709.25
2022-09-10T10:38:37.480Z,99697.78
2022-09-10T10:41:34.482Z,99710.13
2022-09-10T10:44:24.251Z,99686.34
2022-09-10T10:47:11.495Z,99682.81
2022-09-10T10:49:50.763Z,99706.63
2022-09-10T10:52:28.176Z,99706.63
2022-09-10T10:55:11.641Z,99704.88
2022-09-10T10:57:57.284Z,99708.41
2022-09-10T11:00:25.877Z,99715.47
2022-09-10T11:03:03.810Z,99711.06
2022-09-10T11:05:38.539Z,99715.47
2022-09-10T11:08:11.381Z,99715.47
2022-09-10T11:10:44.554Z,99711.94
2022-09-10T11:13:21.839Z,99711.06
2022-09-10T11:15:59.231Z,99716.34
2022-09-10T11:18:33.924Z,99713.72
2022-09-10T11:21:05.637Z,99720.75
2022-09-10T11:23:40.743Z,99713.69
2022-09-10T11:26:15.329Z,99710.16
2022-09-10T11:28:52.102Z,99712.81
2022-09-10T11:31:31.582Z,99716.31
2022-09-10T11:34:05.490Z,99726.00
2022-09-10T11:36:41.925Z,99713.69
2022-09-10T11:39:18.940Z,99718.06
2022-09-10T11:41:50.067Z,99704.88
2022-09-10T11:44:36.743Z,99713.66
2022-09-10T11:47:14.316Z,99713.66
2022-09-10T11:49:51.033Z,99723.34
2022-09-10T11:52:21.120Z,99723.34
2022-09-10T11:54:49.574Z,99720.72
2022-09-10T11:57:30.082Z,99724.22
2022-09-10T12:00:09.086Z,99729.47
2022-09-10T12:03:16.345Z,99720.66
2022-09-10T12:05:58.034Z,99720.66
2022-09-10T12:08:38.281Z,99736.50
2022-09-10T12:11:15.078Z,99723.31
2022-09-10T12:13:46.903Z,99732.13
2022-09-10T12:16:26.491Z,99734.72
2022-09-10T12:18:57.597Z,99732.97
2022-09-10T12:21:34.168Z,99736.50
2022-09-10T12:24:07.503Z,99729.41
2022-09-10T12:26:43.991Z,99726.78
2022-09-10T12:29:29.509Z,99728.53
2022-09-10T12:32:37.437Z,99722.34
2022-09-10T12:35:45.083Z,99722.28
2022-09-10T12:38:49.950Z,99723.19
2022-09-10T12:41:56.912Z,99715.22
2022-09-10T12:44:45.701Z,99706.38
2022-09-10T12:47:46.707Z,99715.16
2022-09-10T12:50:22.887Z,99716.00
2022-09-10T12:53:20.637Z,99707.19
2022-09-10T12:55:59.672Z,99718.63
2022-09-10T12:58:47.430Z,99710.66
2022-09-10T13:01:26.230Z,99706.25
2022-09-10T13:04:00.364Z,99707.09
2022-09-10T13:06:38.173Z,99700.91
2022-09-10T13:09:18.365Z,99700.84
2022-09-10T13:11:52.372Z,99708.81
2022-09-10T13:14:24.654Z,99714.03
2022-09-10T13:16:52.973Z,99705.16
2022-09-10T13:19:50.051Z,99706.03
2022-09-10T13:23:02.278Z,99716.59
2022-09-10T13:25:40.181Z,99718.34
2022-09-10T13:28:46.363Z,99720.13
2022-09-10T13:31:33.000Z,99725.38
2022-09-10T13:34:52.479Z,99724.47
2022-09-10T13:37:36.110Z,99727.09
2022-09-10T13:40:26.620Z,99735.00
2022-09-10T13:43:21.892Z,99731.44
2022-09-10T13:45:53.505Z,99729.63
2022-09-10T13:48:26.082Z,99719.91
2022-09-10T13:51:01.262Z,99726.91
2022-09-10T13:53:31.361Z,99732.25
2022-09-10T13:56:12.344Z,99737.50
2022-09-10T13:58:48.850Z,99723.38
2022-09-10T14:01:17.582Z,99719.84
2022-09-10T14:03:47.304Z,99719.84
2022-09-10T14:06:21.210Z,99718.09
2022-09-10T14:08:53.471Z,99722.53
2022-09-10T14:11:25.000Z,99732.22
2022-09-10T14:13:57.710Z,99719.88
2022-09-10T14:16:32.818Z,99733.13
2022-09-10T14:19:04.896Z,99730.50
2022-09-10T14:21:33.697Z,99727.00
2022-09-10T14:24:02.053Z,99724.38
2022-09-10T14:26:33.483Z,99726.19
2022-09-10T14:29:03.981Z,99721.78
2022-09-10T14:31:38.230Z,99728.84
2022-09-10T14:34:32.074Z,99720.06
2022-09-10T14:37:01.515Z,99738.56
2022-09-10T14:39:30.154Z,99732.38
2022-09-10T14:42:23.876Z,99735.94
2022-09-10T14:44:52.610Z,99739.44
2022-09-10T14:47:32.380Z,99742.09
2022-09-10T14:50:32.010Z,99743.00
2022-09-10T14:53:00.358Z,99760.66
2022-09-10T14:55:31.483Z,99750.03
2022-09-10T14:58:00.206Z,99743.88
2022-09-10T15:00:28.868Z,99749.16
2022-09-10T15:02:57.383Z,99750.03
2022-09-10T15:05:25.765Z,99747.41
2022-09-10T15:07:55.431Z,99748.28
2022-09-10T15:10:23.777Z,99751.81
2022-09-10T15:12:53.104Z,99749.16
2022-09-10T15:15:21.579Z,99751.81
2022-09-10T15:17:50.064Z,99743.00
2022-09-10T15:20:18.371Z,99755.31
2022-09-10T15:22:46.940Z,99754.47
2022-09-10T15:25:33.885Z,99773.00
2022-09-10T15:28:04.453Z,99757.97
2022-09-10T15:30:32.711Z,99757.09
2022-09-10T15:33:03.313Z,99756.19
2022-09-10T15:35:32.003Z,99750.00
2022-09-10T15:38:01.672Z,99758.81
2022-09-10T15:40:31.380Z,99758.81
2022-09-10T15:43:00.332Z,99756.19
2022-09-10T15:45:28.692Z,99765.88
2022-09-10T15:47:56.992Z,99759.72
2022-09-10T15:50:25.454Z,99762.38
2022-09-10T15:52:53.739Z,99777.34
2022-09-10T15:55:21.983Z,99774.72
2022-09-10T15:57:52.906Z,99781.81
2022-09-10T16:00:21.437Z,99760.63
2022-09-10T16:02:51.864Z,99768.59
2022-09-10T16:05:22.094Z,99772.97
2022-09-10T16:07:50.426Z,99771.25
2022-09-10T16:10:18.829Z,99766.84
2022-09-10T16:12:47.108Z,99764.19
2022-09-10T16:15:17.262Z,99762.47
2022-09-10T16:17:45.741Z,99772.16
2022-09-10T16:20:14.100Z,99782.75
2022-09-10T16:22:42.433Z,99778.38
2022-09-10T16:25:12.064Z,99773.97
2022-09-10T16:27:43.159Z,99788.06
2022-09-10T16:30:13.729Z,99795.13
2022-09-10T16:32:43.378Z,99797.81
2022-09-10T16:35:11.897Z,99806.63
2022-09-10T16:37:40.609Z,99816.31
2022-09-10T16:40:11.169Z,99820.75
2022-09-10T16:42:39.540Z,99822.50
2022-09-10T16:45:09.367Z,99828.69
2022-09-10T16:47:38.081Z,99825.16
2022-09-10T16:50:08.634Z,99827.81
2022-09-10T16:52:37.504Z,99824.28
2022-09-10T16:55:06.959Z,99824.28
2022-09-10T16:57:35.726Z,99828.69
2022-09-10T17:00:06.005Z,99833.06
2022-09-10T17:02:35.201Z,99834.84
2022-09-10T17:05:03.538Z,99831.31
2022-09-10T17:07:33.221Z,99841.91
2022-09-10T17:10:01.559Z,99845.41
2022-09-10T17:12:29.856Z,99842.78
2022-09-10T17:14:58.129Z,99843.66
2022-09-10T17:17:27.213Z,99841.88
2022-09-10T17:19:56.394Z,99852.44
2022-09-10T17:22:24.789Z,99850.66
2022-09-10T17:24:54.411Z,99852.41
2022-09-10T17:27:25.535Z,99853.31
2022-09-10T17:29:54.009Z,99857.72
2022-09-10T17:32:22.290Z,99857.72
2022-09-10T17:34:51.464Z,99856.84
2022-09-10T17:37:19.924Z,99864.78
2022-09-10T17:39:48.221Z,99866.56
2022-09-10T17:42:17.937Z,99876.22
2022-09-10T17:44:47.110Z,99878.03
2022-09-10T17:47:15.401Z,99882.41
2022-09-10T17:49:44.181Z,99885.97
2022-09-10T17:52:13.342Z,99893.03
2022-09-10T17:54:41.707Z,99895.69
2022-09-10T17:57:10.392Z,99896.56
2022-09-10T17:59:40.622Z,99907.16
2022-09-10T18:02:14.162Z,99903.63
2022-09-10T18:04:42.905Z,99901.88
2022-09-10T18:07:11.993Z,99910.69
2022-09-10T18:09:40.321Z,99915.09
2022-09-10T18:12:08.799Z,99917.75
2022-09-10T18:14:38.406Z,99913.34
2022-09-10T18:17:08.092Z,99929.22
2022-09-10T18:19:36.608Z,99939.81
2022-09-10T18:22:05.353Z,99941.63
2022-09-10T18:24:33.645Z,99944.25
2022-09-10T18:27:04.548Z,99945.13
2022-09-10T18:29:33.237Z,99956.63
2022-09-10T18:32:02.078Z,99960.13
2022-09-10T18:34:32.342Z,99964.56
2022-09-10T18:37:02.168Z,99965.44
2022-09-10T18:39:32.744Z,99969.84
2022-09-10T18:42:02.714Z,99969.88
2022-09-10T18:44:34.133Z,99976.94
2022-09-10T18:47:02.461Z,99989.28
2022-09-10T18:49:33.466Z,99992.81
2022-09-10T18:52:01.957Z,99995.44
2022-09-10T18:54:30.590Z,100000.75
2022-09-10T18:56:59.137Z,100006.91
2022-09-10T18:59:27.800Z,100002.53
2022-09-10T19:01:56.787Z,100008.69
2022-09-10T19:04:27.051Z,100007.78
2022-09-10T19:06:57.824Z,100013.09
2022-09-10T19:09:27.830Z,100005.16
2022-09-10T19:11:58.410Z,100014.84
2022-09-10T19:14:29.326Z,100017.50
2022-09-10T19:16:58.844Z,100021.03
2022-09-10T19:19:29.252Z,100021.91
2022-09-10T19:22:01.156Z,100026.31
2022-09-10T19:24:51.188Z,100026.31
2022-09-10T19:27:18.392Z,100034.25
2022-09-10T19:29:47.262Z,100028.06
2022-09-10T19:32:16.890Z,100043.91
2022-09-10T19:34:45.398Z,100044.78
2022-09-10T19:37:15.115Z,100054.47
2022-09-10T19:39:44.380Z,100053.56
2022-09-10T19:42:13.072Z,100052.69
2022-09-10T19:44:41.388Z,100062.38
2022-09-10T19:47:09.714Z,100060.63
2022-09-10T19:49:39.048Z,100064.16
2022-09-10T19:52:07.370Z,100066.81
2022-09-10T19:54:37.091Z,100069.47
2022-09-10T19:57:05.571Z,100070.31
2022-09-10T19:59:33.871Z,100072.09
2022-09-10T20:02:02.307Z,100072.97
2022-09-10T20:04:30.657Z,100076.50
2022-09-10T20:06:58.907Z,100078.25
2022-09-10T20:09:27.308Z,100087.06
2022-09-10T20:11:56.965Z,100084.41
2022-09-10T20:14:25.664Z,100094.97
2022-09-10T20:16:54.651Z,100095.88
2022-09-10T20:19:22.961Z,100082.63
2022-09-10T20:21:51.704Z,100093.19
2022-09-10T20:24:20.026Z,100094.06
2022-09-10T20:26:48.926Z,100092.31
2022-09-10T20:29:20.354Z,100088.78
2022-09-10T20:31:49.211Z,100087.91
2022-09-10T20:34:20.739Z,100090.53
2022-09-10T20:36:51.079Z,100087.91
2022-09-10T20:39:20.912Z,100096.69
2022-09-10T20:41:49.188Z,100097.56
2022-09-10T20:44:19.821Z,100092.28
2022-09-10T20:46:48.086Z,100100.22
2022-09-10T20:49:17.022Z,100108.16
2022-09-10T20:51:45.796Z,100107.25
2022-09-10T20:54:17.324Z,100111.63
2022-09-10T20:56:46.390Z,100115.16
2022-09-10T20:59:16.447Z,100116.94
2022-09-10T21:01:47.358Z,100113.41
2022-09-10T21:04:16.219Z,100126.63
2022-09-10T21:06:44.551Z,100126.63
2022-09-10T21:09:13.459Z,100119.53
2022-09-10T21:11:41.888Z,100131.88
2022-09-10T21:14:12.191Z,100129.22
2022-09-10T21:16:43.122Z,100137.19
2022-09-10T21:19:14.549Z,100128.34
2022-09-10T21:21:44.807Z,100136.25
2022-09-10T21:24:14.863Z,100137.19
2022-09-10T21:26:44.048Z,100141.56
2022-09-10T21:29:14.311Z,100147.75
2022-09-10T21:31:43.288Z,100146.84
2022-09-10T21:34:15.170Z,100141.56
2022-09-10T21:36:43.715Z,100148.59
2022-09-10T21:39:15.263Z,100149.47
2022-09-10T21:41:45.152Z,100147.72
2022-09-10T21:44:15.158Z,100145.09
2022-09-10T21:46:44.714Z,100145.09
2022-09-10T21:49:14.492Z,100145.97
2022-09-10T21:51:43.114Z,100150.38
2022-09-10T21:54:14.971Z,100147.69
2022-09-10T21:56:43.191Z,100151.22
2022-09-10T21:59:12.857Z,100154.75
2022-09-10T22:01:43.166Z,100152.09
2022-09-10T22:04:12.591Z,100156.50
2022-09-10T22:06:42.201Z,100153.00
2022-09-10T22:09:13.270Z,100157.38
2022-09-10T22:11:43.245Z,100160.88
2022-09-10T22:14:14.743Z,100163.53
2022-09-10T22:16:43.337Z,100170.56
2022-09-10T22:19:15.129Z,100164.41
2022-09-10T22:21:44.863Z,100173.22
2022-09-10T22:24:15.022Z,100170.56
2022-09-10T22:26:44.935Z,100174.97
2022-09-10T22:29:15.825Z,100180.22
2022-09-10T22:31:44.367Z,100180.22
2022-09-10T22:34:14.336Z,100185.47
2022-09-10T22:36:45.863Z,100197.84
2022-09-10T22:39:15.922Z,100183.72
2022-09-10T22:41:45.186Z,100197.81
2022-09-10T22:44:13.890Z,100190.75
2022-09-10T22:46:42.940Z,100189.00
2022-09-10T22:49:11.718Z,100194.28
2022-09-10T22:51:41.822Z,100196.91
2022-09-10T22:54:12.197Z,100195.16
2022-09-10T22:56:41.909Z,100200.41
2022-09-10T22:59:13.875Z,100201.28
2022-09-10T23:01:43.279Z,100203.06
2022-09-10T23:04:12.551Z,100208.31
2022-09-10T23:06:41.316Z,100202.16
2022-09-10T23:09:13.474Z,100208.28
2022-09-10T23:11:42.537Z,100210.06
2022-09-10T23:14:13.954Z,100213.59
2022-09-10T23:16:43.665Z,100210.94
2022-09-10T23:19:13.946Z,100210.94
2022-09-10T23:21:44.773Z,100214.44
2022-09-10T23:24:16.226Z,100218.81
2022-09-10T23:26:45.686Z,100215.28
2022-09-10T23:29:17.320Z,100213.50
2022-09-10T23:31:47.544Z,100216.16
2022-09-10T23:34:17.799Z,100209.97
2022-09-10T23:36:48.729Z,100213.50
2022-09-10T23:39:20.771Z,100209.97
2022-09-10T23:41:49.954Z,100218.75
2022-09-10T23:44:18.536Z,100212.59
2022-09-10T23:46:46.899Z,100206.41
2022-09-10T23:49:15.924Z,100206.41
2022-09-10T23:51:44.350Z,100207.28
2022-09-10T23:54:13.102Z,100212.53
2022-09-10T23:56:43.144Z,100220.44
2022-09-10T23:59:12.362Z,100212.50
